IYW0012 HKJK-LIMC
Flight info
| Callsign | IYW0012 |
|---|---|
| Flight time | N/A |
| Altitude | 30000 |
| Route | IBRAT3E KIMET UM304 EPLAS DCT MLK DCT NUBAR A727 SML L321 KUNKI P751 METRU UM872 LATAN DCT IVMEP DCT LIKNO DCT BEPMA DCT GOLAS T648 MEBUR |
| Aircraft | MD11/H-SDE1E2E3FGHIJ2J3J4J5M1RWXY/LB1D1 |
Departure
| Time | N/A |
|---|---|
| Airport | Jomo Kenyatta International Airport (HKJK) |
Arrival
| Time | 2026-02-17 14:16 |
|---|---|
| Airport | Milan Malpensa International Airport (LIMC) |
| Time | Latitude | Longitude | Altitude | Speed | Heading |
|---|---|---|---|---|---|
| 2026-02-17 13:58 | 44.70286 | 9.25335 | 12848 ft | 348 kts | 315° |
| 2026-02-17 13:58 | 44.71898 | 9.22944 | 12693 ft | 327 kts | 315° |
| 2026-02-17 13:59 | 44.74872 | 9.18566 | 12179 ft | 297 kts | 318° |
| 2026-02-17 13:59 | 44.76432 | 9.16719 | 11699 ft | 291 kts | 323° |
| 2026-02-17 13:59 | 44.78058 | 9.15027 | 11173 ft | 289 kts | 325° |
| 2026-02-17 13:59 | 44.79676 | 9.13399 | 10784 ft | 283 kts | 325° |
| 2026-02-17 14:00 | 44.81111 | 9.11601 | 10525 ft | 273 kts | 308° |
| 2026-02-17 14:00 | 44.81864 | 9.09192 | 10338 ft | 269 kts | 287° |
| 2026-02-17 14:00 | 44.82254 | 9.06605 | 10149 ft | 271 kts | 286° |
| 2026-02-17 14:00 | 44.82724 | 9.04054 | 9964 ft | 268 kts | 290° |
| 2026-02-17 14:01 | 44.83328 | 9.01578 | 9832 ft | 266 kts | 294° |
| 2026-02-17 14:01 | 44.84037 | 8.99165 | 9812 ft | 267 kts | 296° |
| 2026-02-17 14:01 | 44.84819 | 8.96796 | 9844 ft | 267 kts | 298° |
| 2026-02-17 14:01 | 44.85649 | 8.94464 | 9836 ft | 266 kts | 300° |
| 2026-02-17 14:02 | 44.86501 | 8.92179 | 9832 ft | 261 kts | 300° |
| 2026-02-17 14:02 | 44.87073 | 8.90691 | 9839 ft | 262 kts | 301° |
| 2026-02-17 14:02 | 44.87952 | 8.88446 | 9837 ft | 261 kts | 301° |
| 2026-02-17 14:03 | 44.89730 | 8.83997 | 9831 ft | 260 kts | 302° |
| 2026-02-17 14:03 | 44.90626 | 8.81781 | 9838 ft | 260 kts | 302° |
| 2026-02-17 14:03 | 44.91523 | 8.79572 | 9833 ft | 259 kts | 302° |
| 2026-02-17 14:03 | 44.92422 | 8.77366 | 9831 ft | 259 kts | 302° |
| 2026-02-17 14:04 | 44.93320 | 8.75166 | 9825 ft | 259 kts | 302° |
| 2026-02-17 14:04 | 44.94219 | 8.72965 | 9631 ft | 259 kts | 302° |
| 2026-02-17 14:04 | 44.95118 | 8.70773 | 9428 ft | 256 kts | 304° |
| 2026-02-17 14:04 | 44.96336 | 8.68993 | 9218 ft | 253 kts | 329° |
| 2026-02-17 14:05 | 44.97996 | 8.68244 | 8957 ft | 255 kts | 355° |
| 2026-02-17 14:05 | 44.99761 | 8.68556 | 8632 ft | 258 kts | 10° |
| 2026-02-17 14:05 | 45.01502 | 8.69230 | 8288 ft | 260 kts | 12° |
| 2026-02-17 14:05 | 45.03258 | 8.69804 | 7954 ft | 258 kts | 6° |
| 2026-02-17 14:06 | 45.05034 | 8.70162 | 7619 ft | 258 kts | 4° |
| 2026-02-17 14:06 | 45.06811 | 8.70495 | 7299 ft | 258 kts | 4° |
| 2026-02-17 14:06 | 45.08584 | 8.70842 | 6962 ft | 257 kts | 5° |
| 2026-02-17 14:07 | 45.12128 | 8.71580 | 6335 ft | 258 kts | 5° |
| 2026-02-17 14:07 | 45.13904 | 8.71963 | 5904 ft | 260 kts | 5° |
| 2026-02-17 14:07 | 45.15705 | 8.72356 | 5359 ft | 265 kts | 5° |
| 2026-02-17 14:07 | 45.17539 | 8.72762 | 4896 ft | 266 kts | 5° |
| 2026-02-17 14:08 | 45.19332 | 8.73167 | 4838 ft | 257 kts | 5° |
| 2026-02-17 14:08 | 45.21100 | 8.73565 | 4773 ft | 257 kts | 5° |
| 2026-02-17 14:08 | 45.22868 | 8.73964 | 4764 ft | 258 kts | 5° |
| 2026-02-17 14:08 | 45.24635 | 8.74363 | 4759 ft | 257 kts | 5° |
| 2026-02-17 14:09 | 45.26406 | 8.74764 | 4760 ft | 258 kts | 5° |
| 2026-02-17 14:09 | 45.27831 | 8.75086 | 4744 ft | 258 kts | 6° |
| 2026-02-17 14:09 | 45.29596 | 8.75486 | 4696 ft | 259 kts | 5° |
| 2026-02-17 14:09 | 45.31367 | 8.75889 | 4594 ft | 254 kts | 6° |
| 2026-02-17 14:10 | 45.33060 | 8.76281 | 4418 ft | 237 kts | 6° |
| 2026-02-17 14:10 | 45.34615 | 8.76641 | 4224 ft | 216 kts | 6° |
| 2026-02-17 14:10 | 45.36068 | 8.76975 | 4010 ft | 209 kts | 6° |
| 2026-02-17 14:11 | 45.38929 | 8.77624 | 3630 ft | 208 kts | 6° |
| 2026-02-17 14:11 | 45.40352 | 8.77948 | 3449 ft | 206 kts | 7° |
| 2026-02-17 14:11 | 45.41764 | 8.78270 | 3452 ft | 207 kts | 7° |
| 2026-02-17 14:11 | 45.43187 | 8.78489 | 3435 ft | 206 kts | 356° |
| 2026-02-17 14:12 | 45.44594 | 8.78316 | 3497 ft | 197 kts | 352° |
| 2026-02-17 14:12 | 45.45875 | 8.78067 | 3504 ft | 176 kts | 349° |
| 2026-02-17 14:12 | 45.47043 | 8.77739 | 3460 ft | 169 kts | 347° |
| 2026-02-17 14:12 | 45.48194 | 8.77408 | 3455 ft | 169 kts | 348° |
| 2026-02-17 14:13 | 45.49333 | 8.77092 | 3233 ft | 166 kts | 348° |
| 2026-02-17 14:13 | 45.50462 | 8.76781 | 3022 ft | 165 kts | 348° |
| 2026-02-17 14:13 | 45.51601 | 8.76469 | 2782 ft | 164 kts | 349° |
| 2026-02-17 14:13 | 45.52720 | 8.76163 | 2548 ft | 164 kts | 348° |
| 2026-02-17 14:14 | 45.53835 | 8.75854 | 2383 ft | 164 kts | 349° |
| 2026-02-17 14:14 | 45.54939 | 8.75554 | 2105 ft | 163 kts | 349° |
| 2026-02-17 14:14 | 45.56049 | 8.75252 | 1878 ft | 162 kts | 348° |
| 2026-02-17 14:15 | 45.58253 | 8.74650 | 1442 ft | 161 kts | 349° |
| 2026-02-17 14:15 | 45.59419 | 8.74333 | 1196 ft | 178 kts | 349° |
| 2026-02-17 14:15 | 45.60596 | 8.74013 | 986 ft | 181 kts | 349° |
| 2026-02-17 14:15 | 45.61788 | 8.73687 | 752 ft | 167 kts | 349° |
| 2026-02-17 14:16 | 45.62764 | 8.73422 | 744 ft | 115 kts | 349° |
| 2026-02-17 14:16 | 45.63355 | 8.73260 | 741 ft | 58 kts | 349° |
| 2026-02-17 14:16 | 45.63623 | 8.73170 | 743 ft | 35 kts | 341° |
| 2026-02-17 14:16 | 45.63751 | 8.73035 | 743 ft | 20 kts | 312° |
| 2026-02-17 14:17 | 45.63823 | 8.72902 | 742 ft | 16 kts | 304° |
| 2026-02-17 14:17 | 45.63868 | 8.72802 | 741 ft | 9 kts | 303° |
| 2026-02-17 14:17 | 45.63900 | 8.72730 | 741 ft | 9 kts | 303° |
| 2026-02-17 14:17 | 45.63920 | 8.72648 | 741 ft | 0 kts | 271° |
| 2026-02-17 14:18 | 45.63919 | 8.72644 | 741 ft | 2 kts | 269° |
| 2026-02-17 14:18 | 45.63883 | 8.72593 | 742 ft | 13 kts | 194° |
| 2026-02-17 14:18 | 45.63759 | 8.72618 | 740 ft | 18 kts | 170° |
| 2026-02-17 14:19 | 45.63547 | 8.72678 | 742 ft | 13 kts | 169° |
| 2026-02-17 14:19 | 45.63449 | 8.72706 | 743 ft | 17 kts | 168° |
| 2026-02-17 14:19 | 45.63322 | 8.72740 | 741 ft | 18 kts | 170° |
| 2026-02-17 14:19 | 45.63203 | 8.72773 | 741 ft | 17 kts | 168° |
| 2026-02-17 14:20 | 45.63097 | 8.72809 | 741 ft | 15 kts | 166° |
| 2026-02-17 14:20 | 45.63007 | 8.72833 | 741 ft | 12 kts | 172° |
| 2026-02-17 14:20 | 45.62899 | 8.72854 | 741 ft | 18 kts | 172° |
| 2026-02-17 14:20 | 45.62778 | 8.72879 | 742 ft | 18 kts | 169° |
| 2026-02-17 14:21 | 45.62646 | 8.72905 | 742 ft | 18 kts | 167° |
| 2026-02-17 14:21 | 45.62525 | 8.72952 | 743 ft | 17 kts | 166° |
| 2026-02-17 14:21 | 45.62413 | 8.72988 | 743 ft | 17 kts | 168° |
| 2026-02-17 14:21 | 45.62285 | 8.73024 | 744 ft | 21 kts | 169° |
| 2026-02-17 14:22 | 45.62150 | 8.73062 | 742 ft | 19 kts | 169° |
| 2026-02-17 14:22 | 45.61919 | 8.73124 | 743 ft | 16 kts | 169° |
| 2026-02-17 14:23 | 45.61658 | 8.73195 | 741 ft | 19 kts | 169° |
| 2026-02-17 14:23 | 45.61537 | 8.73229 | 743 ft | 17 kts | 169° |
| 2026-02-17 14:23 | 45.61417 | 8.73262 | 741 ft | 19 kts | 169° |
| 2026-02-17 14:23 | 45.61283 | 8.73299 | 743 ft | 20 kts | 169° |
| 2026-02-17 14:24 | 45.61153 | 8.73336 | 744 ft | 20 kts | 169° |
| 2026-02-17 14:24 | 45.61013 | 8.73375 | 743 ft | 20 kts | 169° |
| 2026-02-17 14:24 | 45.60873 | 8.73399 | 743 ft | 22 kts | 186° |
| 2026-02-17 14:24 | 45.60727 | 8.73326 | 742 ft | 23 kts | 202° |
| 2026-02-17 14:25 | 45.60601 | 8.73201 | 742 ft | 22 kts | 244° |
| 2026-02-17 14:25 | 45.60599 | 8.72981 | 742 ft | 22 kts | 277° |
| 2026-02-17 14:25 | 45.60616 | 8.72776 | 745 ft | 21 kts | 276° |
| 2026-02-17 14:25 | 45.60634 | 8.72557 | 743 ft | 22 kts | 277° |
| 2026-02-17 14:26 | 45.60693 | 8.72393 | 742 ft | 17 kts | 325° |
| 2026-02-17 14:26 | 45.60792 | 8.72346 | 742 ft | 16 kts | 348° |
| 2026-02-17 14:26 | 45.60906 | 8.72317 | 741 ft | 17 kts | 351° |
| 2026-02-17 14:27 | 45.61173 | 8.72240 | 744 ft | 21 kts | 348° |
| 2026-02-17 14:27 | 45.61315 | 8.72200 | 744 ft | 21 kts | 349° |
| 2026-02-17 14:27 | 45.61456 | 8.72162 | 743 ft | 21 kts | 349° |
| 2026-02-17 14:27 | 45.61605 | 8.72120 | 741 ft | 23 kts | 349° |
| 2026-02-17 14:28 | 45.61763 | 8.72075 | 742 ft | 18 kts | 349° |
| 2026-02-17 14:28 | 45.61871 | 8.72044 | 743 ft | 12 kts | 348° |
| 2026-02-17 14:28 | 45.61910 | 8.72004 | 743 ft | 5 kts | 296° |
| 2026-02-17 14:28 | 45.61909 | 8.71959 | 744 ft | 3 kts | 261° |
| 2026-02-17 14:29 | 45.61903 | 8.71908 | 743 ft | 6 kts | 260° |
| 2026-02-17 14:29 | 45.61900 | 8.71879 | 742 ft | 0 kts | 260° |